Time,TemperatureF,DewpointF,PressureIn,WindDirection,WindDirectionDegrees,WindSpeedMPH,WindSpeedGustMPH,Humidity,HourlyPrecipIn,Conditions,Clouds,dailyrainin,SoftwareType,DateUTC
2013-07-16 00:07:00,65.2,63.0,30.24,SSW,205,3.0,5.0,92,0.00,,,0.00,weatherlink.com 1.10,2013-07-16 04:07:00,
2013-07-16 00:22:00,64.8,63.0,30.24,SSW,212,2.0,5.0,93,0.00,,,0.00,weatherlink.com 1.10,2013-07-16 04:22:00,
2013-07-16 00:37:00,64.6,63.0,30.24,South,182,1.0,4.0,94,0.00,,,0.00,weatherlink.com 1.10,2013-07-16 04:37:00,
2013-07-16 00:52:00,64.3,63.0,30.24,South,186,1.0,2.0,95,0.00,,,0.00,weatherlink.com 1.10,2013-07-16 04:52:00,
2013-07-16 01:07:00,64.7,63.0,30.24,SW,226,1.0,4.0,94,0.00,,,0.00,weatherlink.com 1.10,2013-07-16 05:07:00,
2013-07-16 01:22:00,65.0,63.0,30.24,South,171,0.0,1.0,93,0.00,,,0.00,weatherlink.com 1.10,2013-07-16 05:22:00,
2013-07-16 01:37:00,65.0,63.0,30.24,South,170,0.0,1.0,93,0.00,,,0.00,weatherlink.com 1.10,2013-07-16 05:37:00,
2013-07-16 01:52:00,64.9,63.0,30.24,South,181,0.0,1.0,94,0.00,,,0.00,weatherlink.com 1.10,2013-07-16 05:52:00,
2013-07-16 02:07:00,64.8,63.0,30.24,South,178,0.0,2.0,94,0.00,,,0.00,weatherlink.com 1.10,2013-07-16 06:07:00,
2013-07-16 02:22:00,64.4,63.0,30.23,South,184,0.0,1.0,94,0.00,,,0.00,weatherlink.com 1.10,2013-07-16 06:22:00,
2013-07-16 02:37:00,64.3,63.0,30.23,South,184,0.0,1.0,95,0.00,,,0.00,weatherlink.com 1.10,2013-07-16 06:37:00,
2013-07-16 02:52:00,64.1,63.0,30.23,South,180,0.0,1.0,96,0.00,,,0.00,weatherlink.com 1.10,2013-07-16 06:52:00,
2013-07-16 03:07:00,64.0,63.0,30.23,South,180,1.0,2.0,97,0.00,,,0.00,weatherlink.com 1.10,2013-07-16 07:07:00,
2013-07-16 03:22:00,63.9,63.0,30.23,South,180,0.0,3.0,97,0.00,,,0.00,weatherlink.com 1.10,2013-07-16 07:22:00,
2013-07-16 03:37:00,64.1,63.0,30.23,South,175,0.0,2.0,97,0.00,,,0.00,weatherlink.com 1.10,2013-07-16 07:37:00,
2013-07-16 03:52:00,64.2,63.0,30.23,SE,127,1.0,3.0,97,0.00,,,0.00,weatherlink.com 1.10,2013-07-16 07:52:00,
2013-07-16 04:07:00,64.0,63.0,30.22,SSE,152,0.0,2.0,97,0.00,,,0.00,weatherlink.com 1.10,2013-07-16 08:07:00,
2013-07-16 04:22:00,63.8,63.0,30.22,SSE,152,0.0,1.0,97,0.00,,,0.00,weatherlink.com 1.10,2013-07-16 08:22:00,
2013-07-16 04:37:00,63.9,63.0,30.22,SSE,163,1.0,1.0,97,0.00,,,0.00,weatherlink.com 1.10,2013-07-16 08:37:00,
2013-07-16 04:52:00,63.9,63.0,30.22,South,169,0.0,1.0,97,0.00,,,0.00,weatherlink.com 1.10,2013-07-16 08:52:00,
2013-07-16 05:07:00,63.7,63.0,30.22,South,169,0.0,1.0,98,0.00,,,0.00,weatherlink.com 1.10,2013-07-16 09:07:00,
2013-07-16 05:22:00,63.8,63.0,30.22,South,169,0.0,2.0,98,0.00,,,0.00,weatherlink.com 1.10,2013-07-16 09:22:00,
2013-07-16 05:59:00,64.0,64.0,30.23,South,169,0.0,2.0,98,0.00,,,0.00,weatherlink.com 1.10,2013-07-16 09:59:00,
2013-07-16 06:08:00,64.0,64.0,30.23,South,169,0.0,1.0,98,0.00,,,0.00,weatherlink.com 1.10,2013-07-16 10:08:00,
2013-07-16 06:23:00,63.6,63.0,30.23,South,169,0.0,1.0,98,0.00,,,0.00,weatherlink.com 1.10,2013-07-16 10:23:00,
2013-07-16 06:38:00,63.5,63.0,30.22,South,169,0.0,2.0,98,0.00,,,0.00,weatherlink.com 1.10,2013-07-16 10:38:00,
2013-07-16 06:53:00,63.6,63.0,30.23,South,169,0.0,1.0,99,0.00,,,0.00,weatherlink.com 1.10,2013-07-16 10:53:00,
2013-07-16 07:08:00,64.2,64.0,30.23,South,169,0.0,1.0,99,0.00,,,0.00,weatherlink.com 1.10,2013-07-16 11:08:00,
2013-07-16 07:23:00,64.9,64.0,30.24,South,169,0.0,1.0,98,0.00,,,0.00,weatherlink.com 1.10,2013-07-16 11:23:00,
2013-07-16 07:38:00,65.6,65.0,30.24,South,169,0.0,2.0,97,0.00,,,0.00,weatherlink.com 1.10,2013-07-16 11:38:00,
2013-07-16 07:53:00,66.1,65.0,30.24,South,169,0.0,1.0,95,0.00,,,0.00,weatherlink.com 1.10,2013-07-16 11:53:00,
2013-07-16 08:08:00,67.1,65.0,30.24,South,169,0.0,2.0,94,0.00,,,0.00,weatherlink.com 1.10,2013-07-16 12:08:00,
2013-07-16 08:23:00,68.5,67.0,30.25,South,169,0.0,0.0,93,0.00,,,0.00,weatherlink.com 1.10,2013-07-16 12:23:00,
2013-07-16 08:38:00,69.9,67.0,30.25,South,169,0.0,0.0,91,0.00,,,0.00,weatherlink.com 1.10,2013-07-16 12:38:00,
2013-07-16 08:53:00,70.8,65.0,30.25,South,169,0.0,1.0,83,0.00,,,0.00,weatherlink.com 1.10,2013-07-16 12:53:00,
2013-07-16 09:08:00,71.3,67.0,30.26,South,169,0.0,1.0,87,0.00,,,0.00,weatherlink.com 1.10,2013-07-16 13:08:00,
2013-07-16 09:23:00,70.8,66.0,30.26,North,5,2.0,4.0,85,0.00,,,0.00,weatherlink.com 1.10,2013-07-16 13:23:00,
2013-07-16 09:38:00,70.8,67.0,30.26,North,5,0.0,4.0,86,0.00,,,0.00,weatherlink.com 1.10,2013-07-16 13:38:00,
2013-07-16 09:53:00,70.9,66.0,30.26,North,5,0.0,1.0,85,0.00,,,0.00,weatherlink.com 1.10,2013-07-16 13:53:00,
2013-07-16 10:08:00,71.3,66.0,30.26,WNW,300,1.0,3.0,84,0.00,,,0.00,weatherlink.com 1.10,2013-07-16 14:08:00,
2013-07-16 10:23:00,70.4,66.0,30.26,WNW,291,3.0,5.0,86,0.00,,,0.00,weatherlink.com 1.10,2013-07-16 14:23:00,
2013-07-16 10:38:00,70.8,67.0,30.26,WNW,291,1.0,4.0,87,0.00,,,0.00,weatherlink.com 1.10,2013-07-16 14:38:00,
2013-07-16 10:53:00,71.8,68.0,30.26,West,272,1.0,4.0,86,0.00,,,0.00,weatherlink.com 1.10,2013-07-16 14:53:00,
2013-07-16 11:08:00,72.9,68.0,30.25,West,281,2.0,4.0,83,0.00,,,0.00,weatherlink.com 1.10,2013-07-16 15:08:00,
2013-07-16 11:23:00,74.3,68.0,30.25,WSW,253,0.0,4.0,81,0.00,,,0.00,weatherlink.com 1.10,2013-07-16 15:23:00,
2013-07-16 11:38:00,75.4,68.0,30.25,WSW,258,1.0,4.0,78,0.00,,,0.00,weatherlink.com 1.10,2013-07-16 15:38:00,
2013-07-16 11:53:00,75.4,68.0,30.25,WSW,254,2.0,3.0,78,0.00,,,0.00,weatherlink.com 1.10,2013-07-16 15:53:00,
2013-07-16 12:08:00,76.1,69.0,30.25,West,277,1.0,4.0,78,0.00,,,0.00,weatherlink.com 1.10,2013-07-16 16:08:00,
2013-07-16 12:23:00,77.4,69.0,30.25,WSW,244,2.0,4.0,74,0.00,,,0.00,weatherlink.com 1.10,2013-07-16 16:23:00,
2013-07-16 12:38:00,77.5,69.0,30.24,WSW,239,0.0,3.0,75,0.00,,,0.00,weatherlink.com 1.10,2013-07-16 16:38:00,
2013-07-16 12:53:00,78.3,69.0,30.24,WSW,246,1.0,4.0,73,0.00,,,0.00,weatherlink.com 1.10,2013-07-16 16:53:00,
2013-07-16 13:08:00,78.5,69.0,30.23,WSW,249,0.0,4.0,73,0.00,,,0.00,weatherlink.com 1.10,2013-07-16 17:08:00,
2013-07-16 13:23:00,79.6,69.0,30.22,SW,216,3.0,3.0,70,0.00,,,0.00,weatherlink.com 1.10,2013-07-16 17:23:00,
2013-07-16 13:39:00,79.6,69.0,30.22,WNW,300,4.0,4.0,70,0.00,,,0.00,weatherlink.com 1.10,2013-07-16 17:39:00,
2013-07-16 13:54:00,79.9,71.0,30.22,WSW,240,0.0,6.0,73,0.00,,,0.00,weatherlink.com 1.10,2013-07-16 17:54:00,
2013-07-16 14:09:00,81.4,70.0,30.21,West,263,1.0,3.0,68,0.00,,,0.00,weatherlink.com 1.10,2013-07-16 18:09:00,
2013-07-16 14:24:00,82.5,71.0,30.21,West,266,1.0,3.0,68,0.00,,,0.00,weatherlink.com 1.10,2013-07-16 18:24:00,
2013-07-16 14:40:00,82.7,70.0,30.20,WSW,254,0.0,3.0,66,0.00,,,0.00,weatherlink.com 1.10,2013-07-16 18:40:00,
2013-07-16 14:54:00,82.3,72.0,30.20,WNW,282,1.0,2.0,71,0.00,,,0.00,weatherlink.com 1.10,2013-07-16 18:54:00,
2013-07-16 15:09:00,82.9,72.0,30.20,West,276,0.0,4.0,69,0.00,,,0.00,weatherlink.com 1.10,2013-07-16 19:09:00,
2013-07-16 15:24:00,84.3,72.0,30.20,West,261,2.0,3.0,66,0.00,,,0.00,weatherlink.com 1.10,2013-07-16 19:24:00,
2013-07-16 15:39:00,85.6,71.0,30.19,West,260,1.0,3.0,62,0.00,,,0.00,weatherlink.com 1.10,2013-07-16 19:39:00,
2013-07-16 15:54:00,84.0,71.0,30.19,WNW,292,2.0,4.0,64,0.00,,,0.00,weatherlink.com 1.10,2013-07-16 19:54:00,
2013-07-16 16:09:00,83.0,70.0,30.19,West,260,0.0,3.0,66,0.00,,,0.00,weatherlink.com 1.10,2013-07-16 20:09:00,
2013-07-16 16:24:00,81.8,70.0,30.18,NNW,339,4.0,6.0,68,0.00,,,0.00,weatherlink.com 1.10,2013-07-16 20:24:00,
2013-07-16 16:39:00,78.7,68.0,30.18,North,355,0.0,5.0,70,0.00,,,0.00,weatherlink.com 1.10,2013-07-16 20:39:00,
2013-07-16 16:54:00,77.7,68.0,30.18,NW,315,2.0,2.0,72,0.00,,,0.00,weatherlink.com 1.10,2013-07-16 20:54:00,
2013-07-16 17:09:00,74.7,67.0,30.18,WNW,300,3.0,4.0,78,0.00,,,0.00,weatherlink.com 1.10,2013-07-16 21:09:00,
2013-07-16 17:24:00,73.4,67.0,30.18,NW,315,3.0,4.0,81,0.00,,,0.00,weatherlink.com 1.10,2013-07-16 21:24:00,
2013-07-16 17:39:00,72.8,67.0,30.18,North,360,2.0,5.0,83,0.00,,,0.00,weatherlink.com 1.10,2013-07-16 21:39:00,
2013-07-16 17:54:00,72.6,67.0,30.18,NW,323,3.0,6.0,83,0.00,,,0.00,weatherlink.com 1.10,2013-07-16 21:54:00,
2013-07-16 18:09:00,73.0,68.0,30.19,NNW,347,2.0,5.0,84,0.00,,,0.00,weatherlink.com 1.10,2013-07-16 22:09:00,
2013-07-16 18:24:00,73.4,68.0,30.19,NW,311,2.0,5.0,83,0.00,,,0.00,weatherlink.com 1.10,2013-07-16 22:24:00,
2013-07-16 18:39:00,75.0,70.0,30.18,WNW,287,3.0,4.0,84,0.00,,,0.00,weatherlink.com 1.10,2013-07-16 22:39:00,
2013-07-16 18:54:00,75.3,68.0,30.18,NNE,22,0.0,5.0,79,0.00,,,0.00,weatherlink.com 1.10,2013-07-16 22:54:00,
2013-07-16 19:09:00,74.7,69.0,30.18,NW,307,0.0,4.0,83,0.00,,,0.00,weatherlink.com 1.10,2013-07-16 23:09:00,
2013-07-16 19:24:00,73.1,68.0,30.19,NNW,327,0.0,5.0,85,0.00,,,0.00,weatherlink.com 1.10,2013-07-16 23:24:00,
2013-07-16 19:39:00,72.2,68.0,30.19,WNW,283,1.0,2.0,86,0.00,,,0.00,weatherlink.com 1.10,2013-07-16 23:39:00,
2013-07-16 19:54:00,71.6,68.0,30.19,WNW,284,0.0,2.0,89,0.00,,,0.00,weatherlink.com 1.10,2013-07-16 23:54:00,
2013-07-16 20:09:00,70.9,67.0,30.19,WNW,303,1.0,5.0,87,0.00,,,0.00,weatherlink.com 1.10,2013-07-17 00:09:00,
2013-07-16 20:24:00,71.1,67.0,30.19,NW,311,1.0,3.0,88,0.00,,,0.00,weatherlink.com 1.10,2013-07-17 00:24:00,
2013-07-16 20:39:00,70.9,67.0,30.19,NW,311,0.0,1.0,88,0.00,,,0.00,weatherlink.com 1.10,2013-07-17 00:39:00,
2013-07-16 20:54:00,70.8,67.0,30.19,NW,311,1.0,2.0,86,0.00,,,0.00,weatherlink.com 1.10,2013-07-17 00:54:00,
2013-07-16 21:09:00,70.7,66.0,30.19,NW,311,0.0,1.0,86,0.00,,,0.00,weatherlink.com 1.10,2013-07-17 01:09:00,
2013-07-16 21:24:00,70.6,66.0,30.20,NW,317,2.0,5.0,86,0.00,,,0.00,weatherlink.com 1.10,2013-07-17 01:24:00,
2013-07-16 21:39:00,70.2,67.0,30.20,NW,317,0.0,2.0,88,0.00,,,0.00,weatherlink.com 1.10,2013-07-17 01:39:00,
2013-07-16 21:54:00,70.1,66.0,30.21,NW,326,2.0,3.0,87,0.00,,,0.00,weatherlink.com 1.10,2013-07-17 01:54:00,
2013-07-16 22:09:00,70.2,66.0,30.21,NNW,342,1.0,4.0,87,0.00,,,0.00,weatherlink.com 1.10,2013-07-17 02:09:00,
2013-07-16 22:24:00,70.5,66.0,30.21,NW,316,1.0,5.0,86,0.00,,,0.00,weatherlink.com 1.10,2013-07-17 02:24:00,
2013-07-16 22:39:00,70.4,66.0,30.21,WNW,294,1.0,5.0,86,0.00,,,0.00,weatherlink.com 1.10,2013-07-17 02:39:00,
2013-07-16 22:54:00,70.2,66.0,30.20,NW,317,0.0,4.0,87,0.00,,,0.00,weatherlink.com 1.10,2013-07-17 02:54:00,
2013-07-16 23:09:00,69.9,66.0,30.20,NW,304,1.0,3.0,88,0.00,,,0.00,weatherlink.com 1.10,2013-07-17 03:09:00,
2013-07-16 23:24:00,69.7,65.0,30.21,NW,304,0.0,2.0,86,0.00,,,0.00,weatherlink.com 1.10,2013-07-17 03:24:00,
2013-07-16 23:39:00,70.1,65.0,30.20,NW,304,0.0,1.0,85,0.00,,,0.00,weatherlink.com 1.10,2013-07-17 03:39:00,
2013-07-16 23:54:00,70.1,67.0,30.20,NW,304,1.0,1.0,88,0.00,,,0.00,weatherlink.com 1.10,2013-07-17 03:54:00,